sensor_id;sensor_type;location;lat;lon;timestamp;P1;durP1;ratioP1;P2;durP2;ratioP2
37529;SDS011;23374;52.758;6.872;2023-04-15T00:02:17;6.27;;;3.77;;
37529;SDS011;23374;52.758;6.872;2023-04-15T00:04:38;9.50;;;3.97;;
37529;SDS011;23374;52.758;6.872;2023-04-15T00:06:58;8.87;;;4.10;;
37529;SDS011;23374;52.758;6.872;2023-04-15T00:09:19;6.80;;;4.10;;
37529;SDS011;23374;52.758;6.872;2023-04-15T00:11:40;5.70;;;3.80;;
37529;SDS011;23374;52.758;6.872;2023-04-15T00:14:00;7.70;;;3.93;;
37529;SDS011;23374;52.758;6.872;2023-04-15T00:16:21;5.20;;;3.80;;
37529;SDS011;23374;52.758;6.872;2023-04-15T00:18:41;7.87;;;4.17;;
37529;SDS011;23374;52.758;6.872;2023-04-15T00:21:03;8.17;;;4.40;;
37529;SDS011;23374;52.758;6.872;2023-04-15T00:23:24;5.93;;;4.20;;
37529;SDS011;23374;52.758;6.872;2023-04-15T00:25:45;8.40;;;4.37;;
37529;SDS011;23374;52.758;6.872;2023-04-15T00:28:06;8.73;;;4.23;;
37529;SDS011;23374;52.758;6.872;2023-04-15T00:30:26;7.20;;;4.20;;
37529;SDS011;23374;52.758;6.872;2023-04-15T00:32:47;8.13;;;4.40;;
37529;SDS011;23374;52.758;6.872;2023-04-15T00:35:08;9.43;;;4.67;;
37529;SDS011;23374;52.758;6.872;2023-04-15T00:37:28;6.60;;;4.20;;
37529;SDS011;23374;52.758;6.872;2023-04-15T00:39:47;8.20;;;4.30;;
37529;SDS011;23374;52.758;6.872;2023-04-15T00:42:08;6.03;;;3.80;;
37529;SDS011;23374;52.758;6.872;2023-04-15T00:44:29;7.83;;;3.70;;
37529;SDS011;23374;52.758;6.872;2023-04-15T00:46:50;5.33;;;3.60;;
37529;SDS011;23374;52.758;6.872;2023-04-15T00:49:12;8.03;;;4.13;;
37529;SDS011;23374;52.758;6.872;2023-04-15T00:51:33;8.67;;;4.13;;
37529;SDS011;23374;52.758;6.872;2023-04-15T00:53:55;8.23;;;3.83;;
37529;SDS011;23374;52.758;6.872;2023-04-15T00:56:16;6.47;;;3.57;;
37529;SDS011;23374;52.758;6.872;2023-04-15T00:58:38;9.03;;;4.00;;
37529;SDS011;23374;52.758;6.872;2023-04-15T01:00:59;7.23;;;4.07;;
37529;SDS011;23374;52.758;6.872;2023-04-15T01:03:20;8.10;;;3.80;;
37529;SDS011;23374;52.758;6.872;2023-04-15T01:05:40;7.40;;;4.20;;
37529;SDS011;23374;52.758;6.872;2023-04-15T01:08:01;7.30;;;4.20;;
37529;SDS011;23374;52.758;6.872;2023-04-15T01:10:22;9.90;;;4.10;;
37529;SDS011;23374;52.758;6.872;2023-04-15T01:12:43;7.47;;;4.00;;
37529;SDS011;23374;52.758;6.872;2023-04-15T01:15:04;5.13;;;3.90;;
37529;SDS011;23374;52.758;6.872;2023-04-15T01:17:26;7.73;;;4.20;;
37529;SDS011;23374;52.758;6.872;2023-04-15T01:19:46;10.00;;;4.27;;
37529;SDS011;23374;52.758;6.872;2023-04-15T01:22:07;7.40;;;4.27;;
37529;SDS011;23374;52.758;6.872;2023-04-15T01:24:27;8.77;;;4.53;;
37529;SDS011;23374;52.758;6.872;2023-04-15T01:26:50;7.17;;;4.03;;
37529;SDS011;23374;52.758;6.872;2023-04-15T01:29:11;10.23;;;4.83;;
37529;SDS011;23374;52.758;6.872;2023-04-15T01:31:32;7.20;;;4.50;;
37529;SDS011;23374;52.758;6.872;2023-04-15T01:33:52;8.53;;;4.90;;
37529;SDS011;23374;52.758;6.872;2023-04-15T01:36:13;7.57;;;4.20;;
37529;SDS011;23374;52.758;6.872;2023-04-15T01:38:35;11.47;;;5.27;;
37529;SDS011;23374;52.758;6.872;2023-04-15T01:40:56;9.07;;;5.43;;
37529;SDS011;23374;52.758;6.872;2023-04-15T01:43:18;8.83;;;5.40;;
37529;SDS011;23374;52.758;6.872;2023-04-15T01:45:38;8.13;;;4.97;;
37529;SDS011;23374;52.758;6.872;2023-04-15T01:47:59;9.07;;;4.97;;
37529;SDS011;23374;52.758;6.872;2023-04-15T01:50:20;10.17;;;4.90;;
37529;SDS011;23374;52.758;6.872;2023-04-15T01:52:40;9.17;;;4.80;;
37529;SDS011;23374;52.758;6.872;2023-04-15T01:55:01;9.20;;;5.10;;
37529;SDS011;23374;52.758;6.872;2023-04-15T01:57:21;8.93;;;5.87;;
37529;SDS011;23374;52.758;6.872;2023-04-15T01:59:41;10.03;;;5.33;;
37529;SDS011;23374;52.758;6.872;2023-04-15T02:02:02;9.13;;;5.00;;
37529;SDS011;23374;52.758;6.872;2023-04-15T02:04:24;10.77;;;5.57;;
37529;SDS011;23374;52.758;6.872;2023-04-15T02:06:44;10.30;;;4.70;;
37529;SDS011;23374;52.758;6.872;2023-04-15T02:09:04;10.13;;;5.40;;
37529;SDS011;23374;52.758;6.872;2023-04-15T02:11:25;10.37;;;5.37;;
37529;SDS011;23374;52.758;6.872;2023-04-15T02:13:46;8.63;;;4.77;;
37529;SDS011;23374;52.758;6.872;2023-04-15T02:16:15;10.53;;;5.50;;
37529;SDS011;23374;52.758;6.872;2023-04-15T02:18:36;11.83;;;5.50;;
37529;SDS011;23374;52.758;6.872;2023-04-15T02:20:57;11.47;;;5.63;;
37529;SDS011;23374;52.758;6.872;2023-04-15T02:23:17;8.20;;;5.03;;
37529;SDS011;23374;52.758;6.872;2023-04-15T02:25:38;8.63;;;5.23;;
37529;SDS011;23374;52.758;6.872;2023-04-15T02:27:58;8.03;;;4.97;;
37529;SDS011;23374;52.758;6.872;2023-04-15T02:30:19;9.03;;;5.07;;
37529;SDS011;23374;52.758;6.872;2023-04-15T02:32:40;8.67;;;5.03;;
37529;SDS011;23374;52.758;6.872;2023-04-15T02:35:04;8.33;;;4.80;;
37529;SDS011;23374;52.758;6.872;2023-04-15T02:37:27;11.40;;;4.97;;
37529;SDS011;23374;52.758;6.872;2023-04-15T02:39:49;10.00;;;5.17;;
37529;SDS011;23374;52.758;6.872;2023-04-15T02:42:10;8.07;;;4.93;;
37529;SDS011;23374;52.758;6.872;2023-04-15T02:44:31;9.87;;;5.17;;
37529;SDS011;23374;52.758;6.872;2023-04-15T02:46:53;9.73;;;5.33;;
37529;SDS011;23374;52.758;6.872;2023-04-15T02:49:13;10.13;;;5.13;;
37529;SDS011;23374;52.758;6.872;2023-04-15T02:51:34;8.97;;;5.43;;
37529;SDS011;23374;52.758;6.872;2023-04-15T02:53:55;9.23;;;5.03;;
37529;SDS011;23374;52.758;6.872;2023-04-15T02:56:16;8.80;;;5.17;;
37529;SDS011;23374;52.758;6.872;2023-04-15T02:58:38;6.23;;;4.23;;
37529;SDS011;23374;52.758;6.872;2023-04-15T03:00:59;7.43;;;4.43;;
37529;SDS011;23374;52.758;6.872;2023-04-15T03:03:20;8.63;;;4.87;;
37529;SDS011;23374;52.758;6.872;2023-04-15T03:05:40;8.73;;;4.30;;
37529;SDS011;23374;52.758;6.872;2023-04-15T03:08:01;7.93;;;4.77;;
37529;SDS011;23374;52.758;6.872;2023-04-15T03:10:21;8.70;;;5.17;;
37529;SDS011;23374;52.758;6.872;2023-04-15T03:12:42;8.97;;;4.77;;
37529;SDS011;23374;52.758;6.872;2023-04-15T03:15:03;7.63;;;5.17;;
37529;SDS011;23374;52.758;6.872;2023-04-15T03:17:23;6.07;;;4.50;;
37529;SDS011;23374;52.758;6.872;2023-04-15T03:19:43;9.07;;;5.33;;
37529;SDS011;23374;52.758;6.872;2023-04-15T03:22:04;8.37;;;5.23;;
37529;SDS011;23374;52.758;6.872;2023-04-15T03:24:25;8.23;;;4.37;;
37529;SDS011;23374;52.758;6.872;2023-04-15T03:26:45;9.63;;;5.10;;
37529;SDS011;23374;52.758;6.872;2023-04-15T03:29:06;9.47;;;5.00;;
37529;SDS011;23374;52.758;6.872;2023-04-15T03:31:26;11.97;;;5.80;;
37529;SDS011;23374;52.758;6.872;2023-04-15T03:33:47;9.50;;;5.17;;
37529;SDS011;23374;52.758;6.872;2023-04-15T03:36:07;9.80;;;5.00;;
37529;SDS011;23374;52.758;6.872;2023-04-15T03:38:27;13.23;;;5.40;;
37529;SDS011;23374;52.758;6.872;2023-04-15T03:40:48;12.43;;;5.50;;
37529;SDS011;23374;52.758;6.872;2023-04-15T03:43:08;11.50;;;5.07;;
37529;SDS011;23374;52.758;6.872;2023-04-15T03:45:29;9.47;;;5.10;;
37529;SDS011;23374;52.758;6.872;2023-04-15T03:47:49;10.87;;;5.40;;
37529;SDS011;23374;52.758;6.872;2023-04-15T03:50:10;15.07;;;5.40;;
37529;SDS011;23374;52.758;6.872;2023-04-15T03:52:30;11.27;;;5.33;;
37529;SDS011;23374;52.758;6.872;2023-04-15T03:54:51;8.87;;;5.87;;
37529;SDS011;23374;52.758;6.872;2023-04-15T03:57:11;9.70;;;5.73;;
37529;SDS011;23374;52.758;6.872;2023-04-15T03:59:31;9.93;;;5.47;;
37529;SDS011;23374;52.758;6.872;2023-04-15T04:01:52;7.60;;;5.03;;
37529;SDS011;23374;52.758;6.872;2023-04-15T04:04:12;9.37;;;5.33;;
37529;SDS011;23374;52.758;6.872;2023-04-15T04:06:32;11.17;;;5.63;;
37529;SDS011;23374;52.758;6.872;2023-04-15T04:08:52;10.13;;;5.83;;
37529;SDS011;23374;52.758;6.872;2023-04-15T04:11:13;8.87;;;5.03;;
37529;SDS011;23374;52.758;6.872;2023-04-15T04:13:33;10.70;;;5.57;;
37529;SDS011;23374;52.758;6.872;2023-04-15T04:15:56;11.97;;;5.03;;
37529;SDS011;23374;52.758;6.872;2023-04-15T04:18:16;13.67;;;5.50;;
37529;SDS011;23374;52.758;6.872;2023-04-15T04:20:37;8.97;;;5.00;;
37529;SDS011;23374;52.758;6.872;2023-04-15T04:22:57;10.33;;;5.33;;
37529;SDS011;23374;52.758;6.872;2023-04-15T04:25:17;7.80;;;5.00;;
37529;SDS011;23374;52.758;6.872;2023-04-15T04:27:37;10.50;;;5.43;;
37529;SDS011;23374;52.758;6.872;2023-04-15T04:29:58;10.33;;;5.80;;
37529;SDS011;23374;52.758;6.872;2023-04-15T04:32:18;12.20;;;6.03;;
37529;SDS011;23374;52.758;6.872;2023-04-15T04:34:39;9.27;;;4.97;;
37529;SDS011;23374;52.758;6.872;2023-04-15T04:36:59;11.53;;;5.63;;
37529;SDS011;23374;52.758;6.872;2023-04-15T04:39:20;8.53;;;4.90;;
37529;SDS011;23374;52.758;6.872;2023-04-15T04:41:40;11.53;;;6.20;;
37529;SDS011;23374;52.758;6.872;2023-04-15T04:44:01;8.77;;;5.40;;
37529;SDS011;23374;52.758;6.872;2023-04-15T04:46:21;8.90;;;5.40;;
37529;SDS011;23374;52.758;6.872;2023-04-15T04:48:42;9.00;;;5.30;;
37529;SDS011;23374;52.758;6.872;2023-04-15T04:51:03;11.07;;;5.67;;
37529;SDS011;23374;52.758;6.872;2023-04-15T04:53:24;12.50;;;5.53;;
37529;SDS011;23374;52.758;6.872;2023-04-15T04:55:44;14.47;;;6.20;;
37529;SDS011;23374;52.758;6.872;2023-04-15T04:58:05;11.10;;;6.10;;
37529;SDS011;23374;52.758;6.872;2023-04-15T05:00:25;9.17;;;5.17;;
37529;SDS011;23374;52.758;6.872;2023-04-15T05:02:46;8.33;;;5.47;;
37529;SDS011;23374;52.758;6.872;2023-04-15T05:05:07;10.40;;;5.53;;
37529;SDS011;23374;52.758;6.872;2023-04-15T05:07:28;11.40;;;6.33;;
37529;SDS011;23374;52.758;6.872;2023-04-15T05:09:49;10.90;;;5.80;;
37529;SDS011;23374;52.758;6.872;2023-04-15T05:12:09;14.23;;;6.27;;
37529;SDS011;23374;52.758;6.872;2023-04-15T05:14:33;12.10;;;6.53;;
37529;SDS011;23374;52.758;6.872;2023-04-15T05:16:54;14.83;;;6.10;;
37529;SDS011;23374;52.758;6.872;2023-04-15T05:19:14;10.77;;;5.83;;
37529;SDS011;23374;52.758;6.872;2023-04-15T05:21:34;10.67;;;5.63;;
37529;SDS011;23374;52.758;6.872;2023-04-15T05:23:55;13.57;;;5.80;;
37529;SDS011;23374;52.758;6.872;2023-04-15T05:26:15;11.10;;;5.80;;
37529;SDS011;23374;52.758;6.872;2023-04-15T05:28:36;10.27;;;6.20;;
37529;SDS011;23374;52.758;6.872;2023-04-15T05:30:57;12.90;;;6.37;;
37529;SDS011;23374;52.758;6.872;2023-04-15T05:33:17;10.20;;;5.53;;
37529;SDS011;23374;52.758;6.872;2023-04-15T05:35:37;11.37;;;6.37;;
37529;SDS011;23374;52.758;6.872;2023-04-15T05:37:57;11.10;;;6.20;;
37529;SDS011;23374;52.758;6.872;2023-04-15T05:40:18;11.07;;;5.73;;
37529;SDS011;23374;52.758;6.872;2023-04-15T05:42:39;12.40;;;6.70;;
37529;SDS011;23374;52.758;6.872;2023-04-15T05:44:59;14.27;;;6.40;;
37529;SDS011;23374;52.758;6.872;2023-04-15T05:47:20;14.10;;;7.07;;
37529;SDS011;23374;52.758;6.872;2023-04-15T05:49:40;10.53;;;5.80;;
37529;SDS011;23374;52.758;6.872;2023-04-15T05:52:01;11.00;;;6.10;;
37529;SDS011;23374;52.758;6.872;2023-04-15T05:54:22;11.87;;;6.03;;
37529;SDS011;23374;52.758;6.872;2023-04-15T05:56:42;11.73;;;6.23;;
37529;SDS011;23374;52.758;6.872;2023-04-15T05:59:02;12.97;;;6.80;;
37529;SDS011;23374;52.758;6.872;2023-04-15T06:01:22;11.50;;;6.10;;
37529;SDS011;23374;52.758;6.872;2023-04-15T06:03:44;12.80;;;6.73;;
37529;SDS011;23374;52.758;6.872;2023-04-15T06:06:04;11.70;;;6.20;;
37529;SDS011;23374;52.758;6.872;2023-04-15T06:08:26;11.20;;;6.63;;
37529;SDS011;23374;52.758;6.872;2023-04-15T06:10:46;11.17;;;6.27;;
37529;SDS011;23374;52.758;6.872;2023-04-15T06:13:07;13.03;;;6.77;;
37529;SDS011;23374;52.758;6.872;2023-04-15T06:15:28;13.77;;;6.90;;
37529;SDS011;23374;52.758;6.872;2023-04-15T06:17:49;15.23;;;6.77;;
37529;SDS011;23374;52.758;6.872;2023-04-15T06:20:10;11.90;;;6.10;;
37529;SDS011;23374;52.758;6.872;2023-04-15T06:22:31;13.27;;;7.17;;
37529;SDS011;23374;52.758;6.872;2023-04-15T06:24:51;12.97;;;7.10;;
37529;SDS011;23374;52.758;6.872;2023-04-15T06:27:13;14.33;;;6.83;;
37529;SDS011;23374;52.758;6.872;2023-04-15T06:29:33;13.43;;;6.20;;
37529;SDS011;23374;52.758;6.872;2023-04-15T06:31:53;12.90;;;6.83;;
37529;SDS011;23374;52.758;6.872;2023-04-15T06:34:15;11.17;;;5.30;;
37529;SDS011;23374;52.758;6.872;2023-04-15T06:36:36;12.33;;;6.57;;
37529;SDS011;23374;52.758;6.872;2023-04-15T06:38:56;11.30;;;6.10;;
37529;SDS011;23374;52.758;6.872;2023-04-15T06:41:16;12.37;;;5.63;;
37529;SDS011;23374;52.758;6.872;2023-04-15T06:43:37;10.10;;;5.47;;
37529;SDS011;23374;52.758;6.872;2023-04-15T06:45:58;9.37;;;5.50;;
37529;SDS011;23374;52.758;6.872;2023-04-15T06:48:19;10.30;;;6.20;;
37529;SDS011;23374;52.758;6.872;2023-04-15T06:50:39;10.33;;;5.10;;
37529;SDS011;23374;52.758;6.872;2023-04-15T06:53:00;8.67;;;5.17;;
37529;SDS011;23374;52.758;6.872;2023-04-15T06:55:20;10.10;;;5.47;;
37529;SDS011;23374;52.758;6.872;2023-04-15T06:57:41;11.37;;;6.17;;
37529;SDS011;23374;52.758;6.872;2023-04-15T07:00:01;9.80;;;4.87;;
37529;SDS011;23374;52.758;6.872;2023-04-15T07:02:24;12.97;;;6.03;;
37529;SDS011;23374;52.758;6.872;2023-04-15T07:04:45;13.70;;;6.30;;
37529;SDS011;23374;52.758;6.872;2023-04-15T07:07:06;15.73;;;6.53;;
37529;SDS011;23374;52.758;6.872;2023-04-15T07:09:26;8.70;;;4.43;;
37529;SDS011;23374;52.758;6.872;2023-04-15T07:11:46;13.03;;;5.87;;
37529;SDS011;23374;52.758;6.872;2023-04-15T07:14:07;11.03;;;5.47;;
37529;SDS011;23374;52.758;6.872;2023-04-15T07:16:28;10.37;;;5.80;;
37529;SDS011;23374;52.758;6.872;2023-04-15T07:18:49;9.50;;;5.23;;
37529;SDS011;23374;52.758;6.872;2023-04-15T07:21:10;10.23;;;5.30;;
37529;SDS011;23374;52.758;6.872;2023-04-15T07:23:30;10.10;;;5.70;;
37529;SDS011;23374;52.758;6.872;2023-04-15T07:25:51;7.67;;;4.57;;
37529;SDS011;23374;52.758;6.872;2023-04-15T07:28:12;9.33;;;4.63;;
37529;SDS011;23374;52.758;6.872;2023-04-15T07:30:32;10.70;;;4.77;;
37529;SDS011;23374;52.758;6.872;2023-04-15T07:32:53;7.07;;;3.93;;
37529;SDS011;23374;52.758;6.872;2023-04-15T07:35:13;8.03;;;3.13;;
37529;SDS011;23374;52.758;6.872;2023-04-15T07:37:34;7.93;;;4.23;;
37529;SDS011;23374;52.758;6.872;2023-04-15T07:39:54;7.97;;;3.13;;
37529;SDS011;23374;52.758;6.872;2023-04-15T07:42:15;6.50;;;3.67;;
37529;SDS011;23374;52.758;6.872;2023-04-15T07:44:36;6.60;;;3.67;;
37529;SDS011;23374;52.758;6.872;2023-04-15T07:46:56;8.03;;;3.63;;
37529;SDS011;23374;52.758;6.872;2023-04-15T07:49:17;7.53;;;3.60;;
37529;SDS011;23374;52.758;6.872;2023-04-15T07:51:40;6.60;;;3.63;;
37529;SDS011;23374;52.758;6.872;2023-04-15T07:54:00;7.90;;;3.70;;
37529;SDS011;23374;52.758;6.872;2023-04-15T07:56:22;6.83;;;3.17;;
37529;SDS011;23374;52.758;6.872;2023-04-15T07:58:42;7.87;;;3.27;;
37529;SDS011;23374;52.758;6.872;2023-04-15T08:01:03;5.10;;;2.43;;
37529;SDS011;23374;52.758;6.872;2023-04-15T08:03:25;4.83;;;2.57;;
37529;SDS011;23374;52.758;6.872;2023-04-15T08:05:46;7.27;;;3.60;;
37529;SDS011;23374;52.758;6.872;2023-04-15T08:08:06;4.67;;;2.80;;
37529;SDS011;23374;52.758;6.872;2023-04-15T08:10:28;6.30;;;3.80;;
37529;SDS011;23374;52.758;6.872;2023-04-15T08:12:49;7.30;;;3.70;;
37529;SDS011;23374;52.758;6.872;2023-04-15T08:15:13;8.70;;;3.60;;
37529;SDS011;23374;52.758;6.872;2023-04-15T08:17:33;5.67;;;3.20;;
37529;SDS011;23374;52.758;6.872;2023-04-15T08:19:54;5.00;;;3.00;;
37529;SDS011;23374;52.758;6.872;2023-04-15T08:22:14;7.83;;;3.70;;
37529;SDS011;23374;52.758;6.872;2023-04-15T08:24:35;5.63;;;3.13;;
37529;SDS011;23374;52.758;6.872;2023-04-15T08:26:57;6.23;;;2.67;;
37529;SDS011;23374;52.758;6.872;2023-04-15T08:29:18;6.23;;;3.10;;
37529;SDS011;23374;52.758;6.872;2023-04-15T08:31:39;6.63;;;3.60;;
37529;SDS011;23374;52.758;6.872;2023-04-15T08:34:00;4.60;;;2.37;;
37529;SDS011;23374;52.758;6.872;2023-04-15T08:36:20;4.40;;;2.73;;
37529;SDS011;23374;52.758;6.872;2023-04-15T08:38:40;5.47;;;2.57;;
37529;SDS011;23374;52.758;6.872;2023-04-15T08:41:03;4.37;;;2.50;;
37529;SDS011;23374;52.758;6.872;2023-04-15T08:44:33;4.73;;;2.00;;
37529;SDS011;23374;52.758;6.872;2023-04-15T08:46:55;2.87;;;1.87;;
37529;SDS011;23374;52.758;6.872;2023-04-15T08:49:20;3.87;;;2.27;;
37529;SDS011;23374;52.758;6.872;2023-04-15T08:51:41;5.53;;;2.30;;
37529;SDS011;23374;52.758;6.872;2023-04-15T08:54:03;3.33;;;2.27;;
37529;SDS011;23374;52.758;6.872;2023-04-15T08:56:25;3.47;;;1.90;;
37529;SDS011;23374;52.758;6.872;2023-04-15T08:58:46;2.40;;;2.17;;
37529;SDS011;23374;52.758;6.872;2023-04-15T09:01:07;4.50;;;2.40;;
37529;SDS011;23374;52.758;6.872;2023-04-15T09:03:28;1.70;;;1.37;;
37529;SDS011;23374;52.758;6.872;2023-04-15T09:05:49;5.67;;;2.67;;
37529;SDS011;23374;52.758;6.872;2023-04-15T09:08:10;3.87;;;2.30;;
37529;SDS011;23374;52.758;6.872;2023-04-15T09:10:32;3.50;;;1.80;;
37529;SDS011;23374;52.758;6.872;2023-04-15T09:12:52;5.00;;;1.83;;
37529;SDS011;23374;52.758;6.872;2023-04-15T09:15:13;3.73;;;1.93;;
37529;SDS011;23374;52.758;6.872;2023-04-15T09:17:41;3.17;;;1.87;;
37529;SDS011;23374;52.758;6.872;2023-04-15T09:20:21;3.87;;;1.80;;
37529;SDS011;23374;52.758;6.872;2023-04-15T09:22:44;3.27;;;1.57;;
37529;SDS011;23374;52.758;6.872;2023-04-15T09:25:24;4.27;;;2.17;;
37529;SDS011;23374;52.758;6.872;2023-04-15T09:27:53;4.83;;;2.20;;
37529;SDS011;23374;52.758;6.872;2023-04-15T09:30:15;2.77;;;2.03;;
37529;SDS011;23374;52.758;6.872;2023-04-15T09:32:56;5.10;;;1.67;;
37529;SDS011;23374;52.758;6.872;2023-04-15T09:35:19;3.53;;;2.10;;
37529;SDS011;23374;52.758;6.872;2023-04-15T09:37:40;4.87;;;2.37;;
37529;SDS011;23374;52.758;6.872;2023-04-15T09:40:00;3.63;;;2.03;;
37529;SDS011;23374;52.758;6.872;2023-04-15T09:42:20;5.07;;;1.70;;
37529;SDS011;23374;52.758;6.872;2023-04-15T09:44:45;4.20;;;2.00;;
37529;SDS011;23374;52.758;6.872;2023-04-15T09:47:06;3.17;;;1.60;;
37529;SDS011;23374;52.758;6.872;2023-04-15T09:49:27;3.20;;;1.90;;
37529;SDS011;23374;52.758;6.872;2023-04-15T09:51:47;4.00;;;2.07;;
37529;SDS011;23374;52.758;6.872;2023-04-15T09:54:08;8.60;;;1.57;;
37529;SDS011;23374;52.758;6.872;2023-04-15T09:56:38;2.73;;;1.67;;
37529;SDS011;23374;52.758;6.872;2023-04-15T09:59:02;2.33;;;1.70;;
37529;SDS011;23374;52.758;6.872;2023-04-15T10:01:23;3.77;;;2.13;;
37529;SDS011;23374;52.758;6.872;2023-04-15T10:03:44;5.07;;;1.87;;
37529;SDS011;23374;52.758;6.872;2023-04-15T10:06:05;7.40;;;2.10;;
37529;SDS011;23374;52.758;6.872;2023-04-15T10:08:31;4.50;;;1.87;;
37529;SDS011;23374;52.758;6.872;2023-04-15T10:10:54;3.40;;;1.83;;
37529;SDS011;23374;52.758;6.872;2023-04-15T10:13:17;3.30;;;2.00;;
37529;SDS011;23374;52.758;6.872;2023-04-15T10:15:43;3.50;;;1.57;;
37529;SDS011;23374;52.758;6.872;2023-04-15T10:18:09;2.23;;;1.40;;
37529;SDS011;23374;52.758;6.872;2023-04-15T10:20:32;3.40;;;1.60;;
37529;SDS011;23374;52.758;6.872;2023-04-15T10:22:54;2.63;;;1.73;;
37529;SDS011;23374;52.758;6.872;2023-04-15T10:25:15;5.50;;;1.50;;
37529;SDS011;23374;52.758;6.872;2023-04-15T10:27:38;4.67;;;1.57;;
37529;SDS011;23374;52.758;6.872;2023-04-15T10:30:00;3.13;;;1.20;;
37529;SDS011;23374;52.758;6.872;2023-04-15T10:32:24;4.17;;;1.90;;
37529;SDS011;23374;52.758;6.872;2023-04-15T10:34:45;1.63;;;1.10;;
37529;SDS011;23374;52.758;6.872;2023-04-15T10:37:11;5.53;;;1.60;;
37529;SDS011;23374;52.758;6.872;2023-04-15T10:45:05;2.40;;;1.70;;
37529;SDS011;23374;52.758;6.872;2023-04-15T10:47:36;1.80;;;1.40;;
37529;SDS011;23374;52.758;6.872;2023-04-15T10:49:58;1.87;;;1.30;;
37529;SDS011;23374;52.758;6.872;2023-04-15T10:52:24;4.00;;;1.00;;
37529;SDS011;23374;52.758;6.872;2023-04-15T10:54:46;2.73;;;1.50;;
37529;SDS011;23374;52.758;6.872;2023-04-15T10:57:09;3.00;;;1.63;;
37529;SDS011;23374;52.758;6.872;2023-04-15T11:03:08;2.07;;;1.20;;
37529;SDS011;23374;52.758;6.872;2023-04-15T11:11:08;4.70;;;1.60;;
37529;SDS011;23374;52.758;6.872;2023-04-15T11:13:31;2.03;;;1.40;;
37529;SDS011;23374;52.758;6.872;2023-04-15T11:15:54;2.67;;;1.30;;
37529;SDS011;23374;52.758;6.872;2023-04-15T11:18:24;3.20;;;1.40;;
37529;SDS011;23374;52.758;6.872;2023-04-15T11:20:51;1.60;;;1.30;;
37529;SDS011;23374;52.758;6.872;2023-04-15T11:23:16;1.90;;;1.00;;
37529;SDS011;23374;52.758;6.872;2023-04-15T11:25:42;2.27;;;1.17;;
37529;SDS011;23374;52.758;6.872;2023-04-15T11:28:03;3.00;;;1.20;;
37529;SDS011;23374;52.758;6.872;2023-04-15T11:30:27;2.20;;;1.30;;
37529;SDS011;23374;52.758;6.872;2023-04-15T11:32:59;5.20;;;1.17;;
37529;SDS011;23374;52.758;6.872;2023-04-15T11:35:21;1.93;;;1.00;;
37529;SDS011;23374;52.758;6.872;2023-04-15T11:37:42;2.83;;;1.07;;
37529;SDS011;23374;52.758;6.872;2023-04-15T11:40:08;2.13;;;0.97;;
37529;SDS011;23374;52.758;6.872;2023-04-15T11:42:29;4.40;;;1.63;;
37529;SDS011;23374;52.758;6.872;2023-04-15T11:47:34;3.27;;;1.30;;
37529;SDS011;23374;52.758;6.872;2023-04-15T11:49:55;2.43;;;1.17;;
37529;SDS011;23374;52.758;6.872;2023-04-15T11:52:16;2.83;;;1.30;;
37529;SDS011;23374;52.758;6.872;2023-04-15T11:54:36;2.40;;;1.20;;
37529;SDS011;23374;52.758;6.872;2023-04-15T11:56:57;3.90;;;1.50;;
37529;SDS011;23374;52.758;6.872;2023-04-15T11:59:19;1.90;;;1.00;;
37529;SDS011;23374;52.758;6.872;2023-04-15T12:01:39;2.20;;;1.20;;
37529;SDS011;23374;52.758;6.872;2023-04-15T12:04:10;1.53;;;1.23;;
37529;SDS011;23374;52.758;6.872;2023-04-15T12:06:36;1.53;;;1.10;;
37529;SDS011;23374;52.758;6.872;2023-04-15T12:09:11;2.27;;;1.10;;
37529;SDS011;23374;52.758;6.872;2023-04-15T12:11:40;2.40;;;0.90;;
37529;SDS011;23374;52.758;6.872;2023-04-15T12:14:27;3.10;;;1.23;;
37529;SDS011;23374;52.758;6.872;2023-04-15T12:17:04;1.47;;;1.30;;
37529;SDS011;23374;52.758;6.872;2023-04-15T12:19:34;1.33;;;1.13;;
37529;SDS011;23374;52.758;6.872;2023-04-15T12:22:12;3.33;;;1.30;;
37529;SDS011;23374;52.758;6.872;2023-04-15T12:24:35;2.13;;;1.10;;
37529;SDS011;23374;52.758;6.872;2023-04-15T12:26:56;4.10;;;1.23;;
37529;SDS011;23374;52.758;6.872;2023-04-15T12:29:17;1.93;;;1.17;;
37529;SDS011;23374;52.758;6.872;2023-04-15T12:31:52;1.50;;;1.20;;
37529;SDS011;23374;52.758;6.872;2023-04-15T12:34:13;1.63;;;1.40;;
37529;SDS011;23374;52.758;6.872;2023-04-15T12:36:34;4.13;;;1.40;;
37529;SDS011;23374;52.758;6.872;2023-04-15T12:38:55;2.23;;;1.40;;
37529;SDS011;23374;52.758;6.872;2023-04-15T12:41:16;5.43;;;1.10;;
37529;SDS011;23374;52.758;6.872;2023-04-15T12:43:36;2.67;;;1.27;;
37529;SDS011;23374;52.758;6.872;2023-04-15T12:45:57;4.37;;;1.40;;
37529;SDS011;23374;52.758;6.872;2023-04-15T12:48:17;3.03;;;0.87;;
37529;SDS011;23374;52.758;6.872;2023-04-15T12:50:38;1.87;;;1.30;;
37529;SDS011;23374;52.758;6.872;2023-04-15T12:52:58;2.97;;;1.87;;
37529;SDS011;23374;52.758;6.872;2023-04-15T12:55:19;3.27;;;1.47;;
37529;SDS011;23374;52.758;6.872;2023-04-15T12:57:39;3.20;;;1.27;;
37529;SDS011;23374;52.758;6.872;2023-04-15T12:59:59;2.23;;;1.33;;
37529;SDS011;23374;52.758;6.872;2023-04-15T13:02:19;4.17;;;1.60;;
37529;SDS011;23374;52.758;6.872;2023-04-15T13:04:44;2.47;;;1.30;;
37529;SDS011;23374;52.758;6.872;2023-04-15T13:07:04;1.50;;;1.20;;
37529;SDS011;23374;52.758;6.872;2023-04-15T13:09:25;3.90;;;1.20;;
37529;SDS011;23374;52.758;6.872;2023-04-15T13:11:45;3.53;;;1.30;;
37529;SDS011;23374;52.758;6.872;2023-04-15T13:14:07;1.60;;;1.00;;
37529;SDS011;23374;52.758;6.872;2023-04-15T13:16:30;3.60;;;1.17;;
37529;SDS011;23374;52.758;6.872;2023-04-15T13:18:51;3.27;;;0.90;;
37529;SDS011;23374;52.758;6.872;2023-04-15T13:21:14;1.20;;;1.03;;
37529;SDS011;23374;52.758;6.872;2023-04-15T13:23:35;4.23;;;1.10;;
37529;SDS011;23374;52.758;6.872;2023-04-15T13:25:56;5.03;;;0.90;;
37529;SDS011;23374;52.758;6.872;2023-04-15T13:28:16;3.10;;;1.20;;
37529;SDS011;23374;52.758;6.872;2023-04-15T13:30:37;2.93;;;1.20;;
37529;SDS011;23374;52.758;6.872;2023-04-15T13:32:58;3.60;;;1.40;;
37529;SDS011;23374;52.758;6.872;2023-04-15T13:35:19;1.33;;;0.77;;
37529;SDS011;23374;52.758;6.872;2023-04-15T13:37:40;1.30;;;0.97;;
37529;SDS011;23374;52.758;6.872;2023-04-15T13:40:01;3.73;;;1.43;;
37529;SDS011;23374;52.758;6.872;2023-04-15T13:42:22;1.80;;;1.10;;
37529;SDS011;23374;52.758;6.872;2023-04-15T13:44:43;2.50;;;1.10;;
37529;SDS011;23374;52.758;6.872;2023-04-15T13:47:03;4.00;;;1.30;;
37529;SDS011;23374;52.758;6.872;2023-04-15T13:49:24;4.53;;;1.20;;
37529;SDS011;23374;52.758;6.872;2023-04-15T13:51:44;1.63;;;1.07;;
37529;SDS011;23374;52.758;6.872;2023-04-15T13:54:05;2.73;;;1.00;;
37529;SDS011;23374;52.758;6.872;2023-04-15T13:56:25;2.90;;;1.07;;
37529;SDS011;23374;52.758;6.872;2023-04-15T13:58:46;2.00;;;0.97;;
37529;SDS011;23374;52.758;6.872;2023-04-15T14:01:06;5.93;;;1.40;;
37529;SDS011;23374;52.758;6.872;2023-04-15T14:03:27;4.53;;;1.30;;
37529;SDS011;23374;52.758;6.872;2023-04-15T14:05:47;3.27;;;1.20;;
37529;SDS011;23374;52.758;6.872;2023-04-15T14:08:14;3.70;;;1.47;;
37529;SDS011;23374;52.758;6.872;2023-04-15T14:10:35;1.40;;;1.13;;
37529;SDS011;23374;52.758;6.872;2023-04-15T14:12:55;2.40;;;1.20;;
37529;SDS011;23374;52.758;6.872;2023-04-15T14:15:16;2.37;;;1.17;;
37529;SDS011;23374;52.758;6.872;2023-04-15T14:17:36;4.63;;;1.27;;
37529;SDS011;23374;52.758;6.872;2023-04-15T14:19:57;4.50;;;1.13;;
37529;SDS011;23374;52.758;6.872;2023-04-15T14:22:17;2.87;;;1.17;;
37529;SDS011;23374;52.758;6.872;2023-04-15T14:24:38;2.30;;;1.07;;
37529;SDS011;23374;52.758;6.872;2023-04-15T14:26:58;5.40;;;1.83;;
37529;SDS011;23374;52.758;6.872;2023-04-15T14:29:20;3.43;;;1.17;;